Time;durP1;ratioP1;P1;durP2;ratioP2;P2;SDS_P1;SDS_P2;PMS_P1;PMS_P2;Temp;Humidity;BMP_temperature;BMP_pressure;BME280_temperature;BME280_humidity;BME280_pressure;Samples;Min_cycle;Max_cycle;Signal;HPM_P1;HPM_P2
2022/02/21 00:00:59;;;;;;;1.67;0.30;;;9.70;83.60;;;;;;4985918;28;20042;-71
2022/02/21 00:03:32;;;;;;;4.00;0.38;;;9.70;83.50;;;;;;4988957;28;20054;-71
2022/02/21 00:06:02;;;;;;;3.20;0.50;;;9.70;83.50;;;;;;4991304;28;20045;-71
2022/02/21 00:08:39;;;;;;;0.82;0.40;;;9.70;83.60;;;;;;4989020;28;20093;-71
2022/02/21 00:11:10;;;;;;;2.00;0.50;;;9.70;83.60;;;;;;4989895;28;20051;-72
2022/02/21 00:13:46;;;;;;;4.07;0.80;;;9.70;83.30;;;;;;4989713;28;20034;-72
2022/02/21 00:16:17;;;;;;;2.25;0.47;;;9.70;83.20;;;;;;5000013;28;20042;-71
2022/02/21 00:18:45;;;;;;;2.53;0.57;;;9.70;83.10;;;;;;4988403;28;20126;-70
2022/02/21 00:21:13;;;;;;;0.68;0.38;;;9.70;83.00;;;;;;4989197;28;20038;-71
2022/02/21 00:23:44;;;;;;;1.75;0.43;;;9.70;82.90;;;;;;4990397;28;20053;-70
2022/02/21 00:26:11;;;;;;;2.42;0.60;;;9.80;82.80;;;;;;4990122;28;20056;-71
2022/02/21 00:28:52;;;;;;;3.53;0.40;;;9.80;82.40;;;;;;4989104;28;20113;-72
2022/02/21 00:31:26;;;;;;;0.68;0.30;;;9.90;82.30;;;;;;4985582;28;20058;-70
2022/02/21 00:33:59;;;;;;;3.47;0.50;;;9.90;82.10;;;;;;4990100;28;20109;-71
2022/02/21 00:36:28;;;;;;;2.53;0.43;;;9.90;82.10;;;;;;4971923;28;20049;-72
2022/02/21 00:38:55;;;;;;;2.15;0.30;;;9.90;81.80;;;;;;4990235;28;20065;-70
2022/02/21 00:41:23;;;;;;;2.42;0.30;;;9.90;81.70;;;;;;4991900;28;20058;-70
2022/02/21 00:43:51;;;;;;;0.40;0.30;;;9.90;81.70;;;;;;4992910;28;21107;-70
2022/02/21 00:46:23;;;;;;;2.58;0.55;;;9.90;81.60;;;;;;4992930;28;20046;-70
2022/02/21 00:48:53;;;;;;;2.75;0.68;;;9.90;81.70;;;;;;4989215;28;20553;-72
2022/02/21 00:51:20;;;;;;;2.75;0.40;;;9.90;81.80;;;;;;4987669;28;20049;-72
2022/02/21 00:53:51;;;;;;;1.65;0.20;;;9.90;82.00;;;;;;4986639;28;20053;-71
2022/02/21 00:56:22;;;;;;;1.27;0.30;;;9.90;82.20;;;;;;4988130;28;20042;-71
2022/02/21 00:58:50;;;;;;;1.70;0.52;;;9.90;82.40;;;;;;4988329;28;20054;-72
2022/02/21 01:01:23;;;;;;;1.08;0.22;;;9.90;82.60;;;;;;4985309;28;20073;-71
2022/02/21 01:03:57;;;;;;;1.85;0.38;;;9.90;82.80;;;;;;4988693;28;20056;-72
2022/02/21 01:06:26;;;;;;;1.45;0.40;;;9.90;82.90;;;;;;4986970;28;20046;-73
2022/02/21 01:08:54;;;;;;;4.75;0.30;;;9.90;83.00;;;;;;4987974;28;20050;-71
2022/02/21 01:11:22;;;;;;;6.07;0.95;;;10.00;82.90;;;;;;4983950;28;20113;-72
2022/02/21 01:13:49;;;;;;;2.25;0.30;;;10.00;82.70;;;;;;4986754;28;20077;-72
2022/02/21 01:16:16;;;;;;;1.42;0.10;;;10.00;82.60;;;;;;4990632;28;20517;-71
2022/02/21 01:18:46;;;;;;;0.90;0.20;;;10.00;82.60;;;;;;4991923;28;20122;-72
2022/02/21 01:21:17;;;;;;;1.30;0.20;;;9.90;82.60;;;;;;4994924;28;20046;-72
2022/02/21 01:23:45;;;;;;;0.85;0.20;;;9.90;82.50;;;;;;4990174;28;20062;-71
2022/02/21 01:26:13;;;;;;;0.38;0.20;;;10.00;82.40;;;;;;4974875;28;20491;-72
2022/02/21 01:28:40;;;;;;;3.63;0.30;;;9.90;82.20;;;;;;4991383;28;20045;-71
2022/02/21 01:31:10;;;;;;;1.00;0.28;;;10.00;82.00;;;;;;4989907;28;20522;-71
2022/02/21 01:33:46;;;;;;;0.65;0.20;;;10.10;81.80;;;;;;4991610;28;20138;-72
2022/02/21 01:36:20;;;;;;;2.55;0.98;;;10.10;81.70;;;;;;4991141;28;20042;-73
2022/02/21 01:38:54;;;;;;;0.50;0.25;;;10.10;81.70;;;;;;4990934;28;20244;-71
2022/02/21 01:41:25;;;;;;;1.75;0.20;;;10.00;81.80;;;;;;4989417;28;20047;-73
2022/02/21 01:44:04;;;;;;;1.85;0.52;;;10.10;81.80;;;;;;4991372;28;20050;-72
2022/02/21 01:46:34;;;;;;;1.52;0.38;;;10.00;82.10;;;;;;4993596;28;20111;-71
2022/02/21 01:49:01;;;;;;;;;;;10.00;82.70;;;;;;4992554;28;20065;-73
2022/02/21 01:51:36;;;;;;;1.38;0.20;;;9.90;83.40;;;;;;4992554;28;20410;-72
2022/02/21 01:54:07;;;;;;;1.95;0.20;;;9.90;84.00;;;;;;4993662;28;21028;-72
2022/02/21 01:56:38;;;;;;;2.03;0.30;;;9.70;82.20;;;;;;4993188;28;20054;-74
2022/02/21 01:59:13;;;;;;;0.10;0.00;;;9.30;78.70;;;;;;4995710;28;20060;-74
2022/02/21 02:01:56;;;;;;;;;;;;;;;;;;;;;
2022/02/21 02:04:31;;;;;;;0.47;0.13;;;8.30;77.00;;;;;;4993404;28;20053;-73
2022/02/21 02:07:06;;;;;;;0.35;0.10;;;8.00;77.10;;;;;;4991749;28;20042;-74
2022/02/21 02:09:37;;;;;;;1.70;0.13;;;7.80;77.60;;;;;;4991895;28;20056;-74
2022/02/21 02:12:10;;;;;;;0.10;0.00;;;7.60;78.00;;;;;;4993002;28;20073;-74
2022/02/21 02:14:40;;;;;;;0.00;0.00;;;7.60;77.90;;;;;;4994175;28;20836;-72
2022/02/21 02:17:09;;;;;;;0.43;0.17;;;7.50;77.80;;;;;;4991842;28;20499;-74
2022/02/21 02:19:37;;;;;;;1.65;0.30;;;7.40;77.90;;;;;;4994383;28;20056;-73
2022/02/21 02:22:11;;;;;;;0.40;0.10;;;7.40;77.70;;;;;;4994063;28;20057;-75
2022/02/21 02:24:39;;;;;;;0.10;0.10;;;7.40;77.70;;;;;;4994501;28;20181;-73
2022/02/21 02:27:12;;;;;;;;;;;7.40;77.90;;;;;;4996225;28;20106;-76
2022/02/21 02:29:41;;;;;;;0.35;0.30;;;7.40;78.00;;;;;;4991997;28;19929;-74
2022/02/21 02:32:18;;;;;;;1.13;0.00;;;7.40;77.90;;;;;;4991772;28;20069;-76
2022/02/21 02:34:51;;;;;;;0.20;0.10;;;7.40;77.40;;;;;;4993077;28;20056;-75
2022/02/21 02:37:27;;;;;;;0.32;0.20;;;7.40;77.30;;;;;;4993875;28;20054;-76
2022/02/21 02:39:54;;;;;;;0.20;0.15;;;7.40;77.20;;;;;;4990749;28;20061;-75
2022/02/21 02:42:22;;;;;;;0.90;0.20;;;7.40;77.10;;;;;;4995105;28;20447;-77
2022/02/21 02:44:53;;;;;;;0.22;0.10;;;7.40;77.30;;;;;;4997799;28;20108;-74
2022/02/21 02:47:23;;;;;;;0.55;0.13;;;7.50;77.20;;;;;;4998482;28;20060;-73
2022/02/21 02:49:50;;;;;;;1.35;0.43;;;7.50;77.10;;;;;;4992885;28;20053;-74
2022/02/21 02:52:18;;;;;;;0.40;0.10;;;7.50;77.20;;;;;;4990857;28;20061;-76
2022/02/21 02:54:55;;;;;;;0.50;0.28;;;7.40;76.90;;;;;;4993449;28;20057;-76
2022/02/21 02:57:22;;;;;;;0.45;0.30;;;7.40;77.30;;;;;;4991704;28;20311;-73
2022/02/21 02:59:53;;;;;;;0.52;0.22;;;7.30;77.70;;;;;;4973882;28;20047;-73
2022/02/21 03:02:20;;;;;;;1.88;0.30;;;7.40;77.70;;;;;;4989825;28;20050;-72
2022/02/21 03:04:48;;;;;;;0.30;0.10;;;7.40;77.90;;;;;;4992154;28;20070;-72
2022/02/21 03:07:18;;;;;;;1.05;0.22;;;7.40;77.90;;;;;;4993287;28;20053;-74
2022/02/21 03:09:47;;;;;;;2.85;0.20;;;7.40;77.90;;;;;;4991838;28;20037;-73
2022/02/21 03:12:14;;;;;;;0.88;0.10;;;7.30;78.00;;;;;;4992671;28;20069;-72
2022/02/21 03:14:45;;;;;;;0.10;0.00;;;7.30;78.20;;;;;;4992409;28;20056;-71
2022/02/21 03:17:13;;;;;;;0.13;0.05;;;7.30;78.70;;;;;;4992581;28;20053;-73
2022/02/21 03:19:41;;;;;;;1.90;0.10;;;7.20;78.60;;;;;;4991966;28;20503;-72
2022/02/21 03:22:08;;;;;;;0.28;0.00;;;7.20;78.30;;;;;;4990535;28;20042;-74
2022/02/21 03:24:36;;;;;;;0.73;0.20;;;7.20;78.40;;;;;;4989896;28;20129;-73
2022/02/21 03:27:27;;;;;;;0.10;0.10;;;7.20;78.20;;;;;;4991802;28;20053;-73
2022/02/21 03:29:54;;;;;;;;;;;7.20;78.40;;;;;;4991161;28;20067;-73
2022/02/21 03:32:24;;;;;;;0.75;0.20;;;7.30;78.50;;;;;;4992986;28;19980;-73
2022/02/21 03:34:51;;;;;;;0.60;0.20;;;7.20;78.30;;;;;;4991468;28;20038;-73
2022/02/21 03:37:19;;;;;;;0.15;0.10;;;7.30;78.30;;;;;;4989085;28;20045;-73
2022/02/21 03:39:50;;;;;;;0.57;0.28;;;7.30;78.30;;;;;;4989760;28;20049;-73
2022/02/21 03:42:24;;;;;;;1.80;0.50;;;7.30;78.30;;;;;;4991243;28;20041;-73
2022/02/21 03:44:54;;;;;;;1.40;0.22;;;7.30;78.10;;;;;;4990079;28;20051;-74
2022/02/21 03:47:29;;;;;;;0.10;0.10;;;7.30;78.30;;;;;;4988521;28;20125;-72
2022/02/21 03:49:57;;;;;;;1.27;0.30;;;7.30;78.40;;;;;;4992581;28;20046;-74
2022/02/21 03:52:24;;;;;;;2.75;0.17;;;7.30;78.20;;;;;;4991176;28;20057;-72
2022/02/21 03:54:52;;;;;;;1.38;0.20;;;7.30;78.10;;;;;;4972550;28;20054;-72
2022/02/21 03:57:22;;;;;;;0.55;0.10;;;7.30;77.70;;;;;;4989779;28;20056;-71
2022/02/21 03:59:50;;;;;;;0.68;0.13;;;7.30;77.80;;;;;;4988459;28;20065;-73
2022/02/21 04:02:17;;;;;;;0.60;0.20;;;7.20;77.90;;;;;;4985320;28;20053;-73
2022/02/21 04:04:48;;;;;;;0.70;0.40;;;7.20;77.80;;;;;;4989591;28;20100;-73
2022/02/21 04:07:15;;;;;;;2.85;0.43;;;7.10;77.80;;;;;;4988753;28;20169;-75
2022/02/21 04:09:47;;;;;;;0.75;0.10;;;7.10;77.80;;;;;;4989359;28;20129;-73
2022/02/21 04:12:14;;;;;;;1.13;0.28;;;7.10;77.70;;;;;;4989127;28;20042;-74
2022/02/21 04:14:43;;;;;;;0.40;0.10;;;6.90;77.20;;;;;;4971070;28;20047;-72
2022/02/21 04:17:14;;;;;;;0.20;0.10;;;6.90;77.00;;;;;;4989788;28;20092;-73
2022/02/21 04:19:41;;;;;;;2.35;0.47;;;6.90;76.80;;;;;;4983939;28;20070;-72
2022/02/21 04:22:10;;;;;;;0.13;0.03;;;6.90;76.60;;;;;;4989184;28;20050;-72
2022/02/21 04:24:40;;;;;;;0.30;0.10;;;6.90;76.90;;;;;;4973193;28;20579;-73
2022/02/21 04:27:19;;;;;;;0.05;0.05;;;6.80;76.70;;;;;;4991386;28;20569;-74
2022/02/21 04:29:48;;;;;;;0.13;0.10;;;6.80;76.40;;;;;;4986145;28;20093;-72
2022/02/21 04:32:19;;;;;;;1.20;0.28;;;6.80;76.10;;;;;;4985775;28;20404;-72
2022/02/21 04:34:50;;;;;;;1.48;0.35;;;6.80;75.90;;;;;;4988129;28;20062;-72
2022/02/21 04:37:18;;;;;;;0.10;0.05;;;6.80;75.80;;;;;;4989573;28;20659;-74
2022/02/21 04:39:46;;;;;;;2.28;0.47;;;6.80;75.50;;;;;;4990571;28;20050;-74
2022/02/21 04:42:15;;;;;;;2.72;0.20;;;6.70;75.20;;;;;;4989606;28;20064;-74
2022/02/21 04:44:49;;;;;;;0.45;0.25;;;6.70;74.80;;;;;;4987238;28;20069;-73
2022/02/21 04:47:39;;;;;;;1.08;0.20;;;6.70;74.50;;;;;;4986464;28;20097;-72
2022/02/21 04:50:09;;;;;;;0.08;0.08;;;6.70;74.70;;;;;;4985404;28;20057;-73
2022/02/21 04:52:37;;;;;;;0.28;0.00;;;6.60;75.00;;;;;;4994753;28;20042;-74
2022/02/21 04:55:06;;;;;;;0.32;0.10;;;6.60;75.10;;;;;;4997149;28;20052;-75
2022/02/21 04:57:43;;;;;;;0.55;0.20;;;6.60;75.00;;;;;;4992807;28;20045;-74
2022/02/21 05:00:14;;;;;;;0.80;0.50;;;6.60;75.10;;;;;;4970025;28;20061;-73
2022/02/21 05:02:47;;;;;;;0.35;0.20;;;6.50;75.10;;;;;;4993662;28;20049;-73
2022/02/21 05:05:18;;;;;;;0.47;0.20;;;6.40;75.30;;;;;;4992796;28;20132;-74
2022/02/21 05:07:46;;;;;;;4.18;0.40;;;6.40;75.10;;;;;;4991072;28;20181;-74
2022/02/21 05:10:14;;;;;;;1.27;0.10;;;6.40;75.00;;;;;;4993207;28;20061;-72
2022/02/21 05:12:45;;;;;;;1.30;0.17;;;6.40;74.60;;;;;;4995997;28;20042;-73
2022/02/21 05:15:14;;;;;;;0.98;0.20;;;6.40;74.80;;;;;;4993081;28;20049;-73
2022/02/21 05:17:42;;;;;;;1.02;0.25;;;6.40;75.00;;;;;;4993480;28;20561;-73
2022/02/21 05:20:11;;;;;;;1.83;0.30;;;6.40;75.00;;;;;;4991817;28;20046;-73
2022/02/21 05:22:39;;;;;;;0.25;0.10;;;6.50;74.80;;;;;;4992527;28;20044;-74
2022/02/21 05:25:08;;;;;;;0.32;0.20;;;6.40;74.90;;;;;;4994521;28;20116;-73
2022/02/21 05:27:36;;;;;;;0.65;0.15;;;6.40;75.00;;;;;;4989928;28;20038;-74
2022/02/21 05:30:05;;;;;;;2.38;0.50;;;6.40;75.00;;;;;;4975758;28;20494;-71
2022/02/21 05:32:34;;;;;;;2.70;0.30;;;6.30;75.00;;;;;;4992336;28;20078;-73
2022/02/21 05:35:03;;;;;;;0.70;0.17;;;6.30;75.20;;;;;;4991263;28;20045;-74
2022/02/21 05:37:33;;;;;;;3.42;0.50;;;6.30;75.10;;;;;;4994248;28;20041;-71
2022/02/21 05:40:00;;;;;;;0.70;0.20;;;6.30;75.10;;;;;;4997095;28;20092;-73
2022/02/21 05:42:30;;;;;;;0.57;0.15;;;6.20;75.20;;;;;;4994574;28;20065;-72
2022/02/21 05:44:57;;;;;;;1.00;0.50;;;6.10;74.90;;;;;;4994733;28;20062;-72
2022/02/21 05:47:25;;;;;;;0.22;0.20;;;6.10;74.60;;;;;;4991214;28;20133;-72
2022/02/21 05:49:54;;;;;;;1.85;0.25;;;6.10;74.00;;;;;;4991982;28;20136;-74
2022/02/21 05:52:21;;;;;;;5.60;0.45;;;6.20;74.10;;;;;;4989242;28;20062;-72
2022/02/21 05:54:49;;;;;;;2.03;0.32;;;6.20;73.80;;;;;;4991982;28;20403;-71
2022/02/21 05:57:17;;;;;;;0.82;0.40;;;6.30;73.60;;;;;;4993609;28;20049;-73
2022/02/21 05:59:44;;;;;;;2.47;0.25;;;6.20;73.90;;;;;;4991612;28;20066;-71
2022/02/21 06:02:13;;;;;;;3.47;0.22;;;6.20;74.50;;;;;;4961535;28;20042;-71
2022/02/21 06:04:40;;;;;;;3.40;0.40;;;6.20;74.90;;;;;;4995251;28;20136;-73
2022/02/21 06:07:08;;;;;;;0.32;0.32;;;6.20;75.00;;;;;;4969918;28;20707;-72
2022/02/21 06:09:39;;;;;;;1.98;0.63;;;6.20;75.00;;;;;;4991711;28;20045;-73
2022/02/21 06:12:11;;;;;;;0.85;0.32;;;6.20;74.70;;;;;;4988526;28;21962;-73
2022/02/21 06:14:42;;;;;;;1.05;0.38;;;6.10;74.50;;;;;;4986338;28;20049;-73
2022/02/21 06:17:09;;;;;;;1.85;0.25;;;6.10;74.50;;;;;;4987536;28;20050;-72
2022/02/21 06:19:37;;;;;;;1.77;0.38;;;6.10;74.40;;;;;;4986486;28;20082;-74
2022/02/21 06:22:04;;;;;;;0.63;0.15;;;6.00;74.70;;;;;;4988238;28;20048;-72
2022/02/21 06:24:33;;;;;;;1.60;0.25;;;6.00;74.80;;;;;;4987501;28;20042;-73
2022/02/21 06:27:01;;;;;;;1.73;0.90;;;5.90;74.80;;;;;;4987106;28;20046;-74
2022/02/21 06:29:30;;;;;;;0.60;0.45;;;6.00;74.80;;;;;;4986298;28;20143;-71
2022/02/21 06:31:58;;;;;;;1.85;0.35;;;6.00;74.90;;;;;;4988781;28;20042;-72
2022/02/21 06:34:25;;;;;;;1.35;0.52;;;5.90;75.00;;;;;;4965419;28;20053;-73
2022/02/21 06:36:52;;;;;;;0.50;0.30;;;5.90;75.10;;;;;;4994500;28;20567;-71
2022/02/21 06:39:21;;;;;;;3.88;0.40;;;5.90;75.30;;;;;;4992323;28;20054;-72
2022/02/21 06:41:51;;;;;;;0.35;0.20;;;5.90;75.30;;;;;;4988662;28;20192;-71
2022/02/21 06:44:19;;;;;;;1.33;0.73;;;5.90;75.50;;;;;;4990171;28;20053;-72
2022/02/21 06:46:46;;;;;;;2.75;0.50;;;5.90;75.60;;;;;;4993830;28;20160;-73
2022/02/21 06:49:13;;;;;;;3.88;0.70;;;5.90;75.60;;;;;;4994072;28;20065;-72
2022/02/21 06:51:41;;;;;;;1.95;0.30;;;5.80;75.70;;;;;;4990111;28;20046;-72
2022/02/21 06:54:09;;;;;;;2.17;0.25;;;5.80;75.80;;;;;;4989461;28;20494;-72
2022/02/21 06:56:36;;;;;;;1.55;0.10;;;5.70;75.80;;;;;;4989230;28;20046;-73
2022/02/21 06:59:04;;;;;;;1.13;0.28;;;5.70;76.00;;;;;;4985416;28;20049;-72
2022/02/21 07:01:32;;;;;;;4.10;0.45;;;5.70;76.00;;;;;;4984310;28;20209;-71
2022/02/21 07:04:00;;;;;;;1.45;0.22;;;5.70;75.60;;;;;;4984052;28;20065;-73
2022/02/21 07:06:27;;;;;;;0.63;0.40;;;5.70;75.60;;;;;;4987293;28;20052;-71
2022/02/21 07:08:55;;;;;;;1.27;0.40;;;5.80;75.40;;;;;;4988245;28;20242;-71
2022/02/21 07:11:23;;;;;;;2.53;0.20;;;5.80;75.40;;;;;;4973092;28;20050;-72
2022/02/21 07:13:53;;;;;;;1.75;0.40;;;5.80;75.40;;;;;;4984624;28;20058;-72
2022/02/21 07:16:23;;;;;;;6.00;0.45;;;5.70;75.10;;;;;;4983733;28;20046;-72
2022/02/21 07:18:50;;;;;;;1.30;0.38;;;5.70;75.00;;;;;;4985068;28;20185;-72
2022/02/21 07:21:18;;;;;;;3.25;0.43;;;5.80;74.80;;;;;;4984637;28;20046;-71
2022/02/21 07:23:49;;;;;;;3.78;0.75;;;5.80;74.70;;;;;;4964524;28;20124;-71
2022/02/21 07:26:18;;;;;;;2.15;0.38;;;5.70;74.50;;;;;;4986789;28;20049;-71
2022/02/21 07:28:48;;;;;;;2.75;0.68;;;5.70;74.20;;;;;;4985810;28;20045;-72
2022/02/21 07:31:18;;;;;;;4.85;0.82;;;5.80;73.60;;;;;;4982184;28;20033;-72
2022/02/21 07:33:48;;;;;;;2.90;0.30;;;5.80;73.20;;;;;;4984116;28;20061;-73
2022/02/21 07:36:17;;;;;;;1.67;0.57;;;5.80;73.10;;;;;;4986368;28;20049;-71
2022/02/21 07:38:51;;;;;;;3.72;0.80;;;5.80;72.50;;;;;;4982508;28;20058;-72
2022/02/21 07:41:23;;;;;;;1.20;0.40;;;5.90;72.20;;;;;;4979780;28;20123;-72
2022/02/21 07:43:51;;;;;;;1.15;0.60;;;5.90;72.10;;;;;;4974390;28;20846;-72
2022/02/21 07:46:19;;;;;;;6.72;1.20;;;6.00;71.90;;;;;;4992272;28;20582;-72
2022/02/21 07:48:48;;;;;;;3.08;0.70;;;6.00;71.90;;;;;;4991732;28;20081;-71
2022/02/21 07:51:15;;;;;;;2.85;0.50;;;6.00;72.00;;;;;;4989074;28;20093;-72
2022/02/21 07:53:46;;;;;;;0.65;0.35;;;6.00;72.00;;;;;;4989157;28;20443;-71
2022/02/21 07:56:16;;;;;;;1.40;0.50;;;5.90;71.90;;;;;;4993692;28;20054;-71
2022/02/21 07:58:44;;;;;;;8.15;1.45;;;5.90;72.00;;;;;;4989663;28;20072;-72
2022/02/21 08:01:11;;;;;;;2.33;0.30;;;6.00;71.60;;;;;;4983165;28;20594;-72
2022/02/21 08:03:42;;;;;;;1.67;0.80;;;6.00;71.60;;;;;;4986888;28;20164;-72
2022/02/21 08:06:10;;;;;;;2.10;0.80;;;6.00;71.90;;;;;;4986649;28;20053;-72
2022/02/21 08:08:38;;;;;;;3.65;0.70;;;6.10;71.70;;;;;;4985757;28;20050;-73
2022/02/21 08:11:06;;;;;;;1.23;0.50;;;6.10;71.60;;;;;;4989917;28;20212;-72
2022/02/21 08:13:39;;;;;;;2.72;0.70;;;6.20;71.50;;;;;;4989444;28;20054;-72
2022/02/21 08:16:19;;;;;;;1.48;0.80;;;6.20;71.50;;;;;;4989444;28;20061;-73
2022/02/21 08:18:47;;;;;;;2.45;1.33;;;6.20;71.50;;;;;;4986717;28;20050;-72
2022/02/21 08:21:16;;;;;;;4.15;0.73;;;6.20;71.00;;;;;;4986156;28;20046;-72
2022/02/21 08:23:43;;;;;;;1.63;0.30;;;6.20;71.00;;;;;;4989585;28;20499;-72
2022/02/21 08:26:11;;;;;;;2.97;0.50;;;6.20;71.10;;;;;;4991185;28;20104;-71
2022/02/21 08:28:38;;;;;;;4.43;0.93;;;6.20;71.40;;;;;;4990869;28;20073;-72
2022/02/21 08:31:08;;;;;;;3.33;0.70;;;6.20;71.20;;;;;;4991844;28;20041;-72
2022/02/21 08:33:35;;;;;;;3.25;0.45;;;6.30;70.80;;;;;;4991909;28;20173;-72
2022/02/21 08:36:04;;;;;;;5.30;0.98;;;6.30;70.70;;;;;;4992650;28;20072;-72
2022/02/21 08:38:33;;;;;;;4.68;0.68;;;6.30;70.60;;;;;;4990546;28;20046;-72
2022/02/21 08:41:04;;;;;;;1.90;0.68;;;6.30;70.60;;;;;;4996965;28;20173;-71
2022/02/21 08:43:32;;;;;;;2.33;0.50;;;6.30;70.90;;;;;;4995162;28;20053;-71
2022/02/21 08:45:59;;;;;;;2.00;0.93;;;6.40;71.20;;;;;;4995148;28;20442;-72
2022/02/21 08:48:26;;;;;;;4.45;0.93;;;6.40;71.20;;;;;;4995427;28;20112;-73
2022/02/21 08:50:59;;;;;;;4.65;0.63;;;6.30;70.90;;;;;;4977312;28;20148;-72
2022/02/21 08:53:31;;;;;;;1.13;0.10;;;6.40;70.90;;;;;;4984636;28;20153;-72
2022/02/21 08:56:02;;;;;;;1.38;0.35;;;6.40;70.90;;;;;;4986328;28;20058;-72
2022/02/21 08:58:31;;;;;;;3.63;0.93;;;6.40;71.00;;;;;;4987613;28;20148;-73
2022/02/21 09:00:59;;;;;;;2.45;0.40;;;6.40;71.30;;;;;;4985840;28;20042;-71
2022/02/21 09:03:26;;;;;;;2.13;0.38;;;6.40;71.50;;;;;;4989107;28;20050;-71
2022/02/21 09:05:58;;;;;;;1.58;0.30;;;6.60;71.70;;;;;;4988575;28;20141;-72
2022/02/21 09:08:38;;;;;;;4.25;1.05;;;6.60;71.60;;;;;;4988891;28;20046;-72
2022/02/21 09:11:08;;;;;;;3.60;0.57;;;6.70;71.30;;;;;;4987638;28;20058;-72
2022/02/21 09:13:36;;;;;;;5.72;0.60;;;6.70;71.40;;;;;;4986699;28;20070;-71
2022/02/21 09:16:04;;;;;;;2.38;0.63;;;6.70;71.70;;;;;;4986989;28;20100;-71
2022/02/21 09:18:32;;;;;;;2.72;0.60;;;6.70;71.80;;;;;;4987198;28;20050;-71
2022/02/21 09:21:00;;;;;;;6.45;0.70;;;6.80;71.90;;;;;;4985119;28;20049;-72
2022/02/21 09:23:30;;;;;;;2.90;1.58;;;6.90;71.90;;;;;;4987846;28;20419;-73
2022/02/21 09:25:58;;;;;;;2.05;0.40;;;6.90;72.20;;;;;;4986647;28;20147;-74
2022/02/21 09:28:27;;;;;;;4.78;1.25;;;6.90;72.40;;;;;;4986216;28;20742;-73
2022/02/21 09:31:02;;;;;;;4.10;0.55;;;7.00;72.40;;;;;;4985200;28;20100;-73
2022/02/21 09:33:32;;;;;;;1.05;0.40;;;7.10;72.20;;;;;;4988422;28;20058;-73
2022/02/21 09:36:00;;;;;;;8.90;2.17;;;7.00;72.00;;;;;;4987509;28;20050;-72
2022/02/21 09:38:31;;;;;;;6.75;0.60;;;7.00;72.30;;;;;;4987155;28;20053;-73
2022/02/21 09:41:03;;;;;;;3.55;0.57;;;7.00;72.40;;;;;;4987395;28;20061;-73
2022/02/21 09:43:35;;;;;;;5.45;0.82;;;7.00;72.30;;;;;;4989588;28;20513;-72
2022/02/21 09:46:05;;;;;;;2.80;0.85;;;7.00;72.10;;;;;;4992851;28;20060;-72
2022/02/21 09:48:33;;;;;;;2.50;0.70;;;7.00;72.30;;;;;;4992339;28;20046;-72
2022/02/21 09:51:01;;;;;;;0.82;0.20;;;7.00;72.00;;;;;;4995108;28;20050;-73
2022/02/21 09:53:29;;;;;;;0.30;0.20;;;7.10;71.70;;;;;;4994704;28;21982;-70
2022/02/21 09:56:00;;;;;;;6.03;0.85;;;7.10;71.60;;;;;;4976769;28;20475;-73
2022/02/21 09:58:29;;;;;;;1.00;0.35;;;7.10;71.30;;;;;;4994922;28;20053;-73
2022/02/21 10:00:59;;;;;;;1.10;0.25;;;7.20;70.90;;;;;;4983912;28;20053;-72
2022/02/21 10:03:43;;;;;;;0.47;0.10;;;7.10;70.50;;;;;;4970495;28;20054;-71
2022/02/21 10:06:19;;;;;;;0.73;0.40;;;7.10;70.90;;;;;;4987634;28;20116;-71
2022/02/21 10:09:01;;;;;;;6.15;0.40;;;7.10;70.80;;;;;;4977445;28;20233;-73
2022/02/21 10:11:32;;;;;;;1.52;0.25;;;7.10;70.70;;;;;;4986884;28;20140;-72
2022/02/21 10:14:04;;;;;;;2.33;0.40;;;7.00;70.30;;;;;;4986806;28;20046;-73
2022/02/21 10:16:41;;;;;;;2.88;0.43;;;7.00;70.70;;;;;;4972164;28;20042;-73
2022/02/21 10:19:14;;;;;;;4.32;1.13;;;7.10;70.60;;;;;;4987723;28;20049;-72
2022/02/21 10:21:59;;;;;;;2.30;0.40;;;7.10;69.80;;;;;;4983542;28;20151;-72
2022/02/21 10:24:28;;;;;;;1.35;0.30;;;7.00;69.60;;;;;;4982138;28;20069;-71
2022/02/21 10:26:59;;;;;;;1.35;0.20;;;7.10;69.90;;;;;;4966145;28;20583;-72
2022/02/21 10:29:27;;;;;;;3.97;0.32;;;7.10;69.30;;;;;;4983332;28;20049;-72
2022/02/21 10:32:08;;;;;;;1.60;0.43;;;7.20;69.10;;;;;;4986245;28;20041;-72
2022/02/21 10:34:35;;;;;;;2.95;0.50;;;7.20;68.70;;;;;;4987697;28;20144;-72
2022/02/21 10:37:06;;;;;;;3.72;0.55;;;7.20;68.00;;;;;;4989366;28;20598;-73
2022/02/21 10:39:34;;;;;;;;;;;7.30;68.00;;;;;;4993860;28;20038;-72
2022/02/21 10:42:02;;;;;;;4.82;0.60;;;7.40;67.90;;;;;;4993395;28;20307;-71
2022/02/21 10:44:32;;;;;;;2.58;0.50;;;7.40;67.90;;;;;;4998850;28;20046;-72
2022/02/21 10:47:04;;;;;;;6.57;0.80;;;7.50;67.50;;;;;;5002919;28;20061;-71
2022/02/21 10:49:33;;;;;;;4.07;0.80;;;7.50;67.40;;;;;;5001631;28;20072;-71
2022/02/21 10:52:04;;;;;;;1.90;0.50;;;7.60;67.40;;;;;;4986686;28;20054;-72
2022/02/21 10:54:33;;;;;;;5.68;0.85;;;7.60;66.60;;;;;;4992775;28;20046;-72
2022/02/21 10:57:01;;;;;;;3.28;0.40;;;7.60;66.40;;;;;;4986511;28;20647;-72
2022/02/21 10:59:33;;;;;;;2.38;0.40;;;7.60;66.20;;;;;;4979114;28;20237;-73
2022/02/21 11:02:02;;;;;;;3.97;0.50;;;7.60;65.80;;;;;;4980553;28;20748;-73
2022/02/21 11:04:31;;;;;;;1.50;0.75;;;7.60;65.80;;;;;;4987519;28;22093;-73
2022/02/21 11:07:00;;;;;;;2.03;0.30;;;7.70;64.80;;;;;;4973262;28;20082;-73
2022/02/21 11:09:30;;;;;;;1.20;0.20;;;7.70;64.40;;;;;;4984288;28;20058;-72
2022/02/21 11:12:01;;;;;;;2.50;0.43;;;7.80;62.60;;;;;;4983290;28;20590;-73
2022/02/21 11:14:35;;;;;;;1.70;1.08;;;7.80;62.10;;;;;;4983830;28;20065;-71
2022/02/21 11:17:06;;;;;;;2.45;0.43;;;7.80;62.30;;;;;;4984670;28;20033;-72
2022/02/21 11:19:33;;;;;;;2.58;0.75;;;7.90;62.80;;;;;;4986486;28;20038;-72
2022/02/21 11:22:06;;;;;;;1.55;0.20;;;7.90;62.40;;;;;;4986419;28;20487;-71
2022/02/21 11:24:36;;;;;;;3.53;0.28;;;7.90;62.80;;;;;;4982856;28;20535;-73
2022/02/21 11:27:13;;;;;;;3.60;0.57;;;7.90;63.00;;;;;;4983787;28;20053;-72
2022/02/21 11:29:47;;;;;;;0.85;0.20;;;8.00;63.10;;;;;;4983470;28;21589;-72
2022/02/21 11:32:20;;;;;;;3.55;0.43;;;7.90;63.40;;;;;;4969784;28;20081;-72
2022/02/21 11:34:51;;;;;;;2.75;0.47;;;8.00;63.10;;;;;;4984745;28;20739;-72
2022/02/21 11:37:23;;;;;;;;;;;7.90;62.80;;;;;;4987537;28;20054;-72
2022/02/21 11:39:58;;;;;;;1.02;0.32;;;7.90;62.90;;;;;;4985031;28;19929;-73
2022/02/21 11:42:30;;;;;;;2.08;0.60;;;7.90;62.60;;;;;;4983803;28;20054;-72
2022/02/21 11:44:59;;;;;;;0.68;0.30;;;7.90;63.20;;;;;;4985090;28;20134;-72
2022/02/21 11:47:40;;;;;;;1.48;0.20;;;7.90;62.70;;;;;;4977029;28;20084;-73
2022/02/21 11:50:25;;;;;;;1.42;0.20;;;7.90;63.20;;;;;;4983152;28;20046;-73
2022/02/21 11:55:43;;;;;;;2.83;0.40;;;8.00;63.80;;;;;;4980951;28;22478;-73
2022/02/21 11:58:44;;;;;;;0.10;0.10;;;8.10;64.60;;;;;;4981351;28;20428;-73
2022/02/21 12:01:20;;;;;;;;;;;8.10;63.90;;;;;;4981007;28;20205;-72
2022/02/21 12:04:15;;;;;;;1.58;0.20;;;8.10;63.70;;;;;;4983443;28;19971;-73
2022/02/21 12:06:57;;;;;;;4.25;0.22;;;8.10;62.10;;;;;;4985635;28;20056;-72
2022/02/21 12:09:26;;;;;;;2.28;0.32;;;8.20;62.20;;;;;;4982964;28;20058;-72
2022/02/21 12:12:21;;;;;;;0.45;0.20;;;8.20;62.10;;;;;;4983389;28;20054;-72
2022/02/21 12:15:12;;;;;;;2.38;0.38;;;8.20;62.40;;;;;;4981196;28;20621;-73
2022/02/21 12:17:40;;;;;;;0.50;0.17;;;8.20;62.20;;;;;;4982958;28;20052;-72
2022/02/21 12:20:39;;;;;;;4.00;0.85;;;8.30;62.20;;;;;;4981804;28;20644;-73
2022/02/21 12:23:16;;;;;;;0.82;0.30;;;8.40;62.10;;;;;;4981128;28;20050;-73
2022/02/21 12:26:14;;;;;;;1.48;0.32;;;8.40;62.20;;;;;;4985652;28;20098;-73
2022/02/21 12:28:44;;;;;;;0.70;0.20;;;8.50;62.60;;;;;;4981511;28;20042;-72
2022/02/21 12:31:24;;;;;;;3.75;0.30;;;8.40;62.30;;;;;;4980362;28;20058;-75
2022/02/21 12:33:57;;;;;;;1.50;0.45;;;8.40;62.10;;;;;;4981689;28;20187;-72
2022/02/21 12:36:34;;;;;;;2.30;0.50;;;8.30;62.50;;;;;;4984761;28;20050;-73
2022/02/21 12:39:01;;;;;;;1.40;0.10;;;8.30;62.30;;;;;;4986870;28;20046;-73
2022/02/21 12:41:38;;;;;;;1.65;0.38;;;8.20;62.60;;;;;;4987359;28;20104;-74
2022/02/21 12:44:07;;;;;;;0.65;0.30;;;8.20;63.10;;;;;;4988129;28;20050;-74
2022/02/21 12:46:37;;;;;;;1.77;0.30;;;8.20;63.40;;;;;;4987813;28;20420;-73
2022/02/21 12:49:07;;;;;;;2.53;0.38;;;8.20;63.80;;;;;;4988310;28;20487;-71
2022/02/21 12:51:38;;;;;;;3.07;0.60;;;8.10;64.40;;;;;;4984380;28;20046;-73
2022/02/21 12:54:10;;;;;;;1.48;0.40;;;8.20;64.70;;;;;;4989701;28;20470;-72
2022/02/21 12:56:49;;;;;;;4.47;0.30;;;8.10;64.70;;;;;;4986201;28;20076;-72
2022/02/21 12:59:18;;;;;;;2.20;0.47;;;8.10;64.90;;;;;;4982855;28;20042;-74
2022/02/21 13:01:47;;;;;;;0.75;0.30;;;8.00;64.90;;;;;;4983083;28;20046;-73
2022/02/21 13:04:14;;;;;;;0.22;0.20;;;8.00;65.20;;;;;;4984537;28;21234;-74
2022/02/21 13:06:45;;;;;;;1.42;0.73;;;8.00;65.50;;;;;;4964917;28;20074;-74
2022/02/21 13:09:13;;;;;;;4.18;0.30;;;7.90;65.50;;;;;;4986433;28;20114;-73
2022/02/21 13:11:42;;;;;;;0.63;0.10;;;7.90;65.90;;;;;;4966368;28;20053;-74
2022/02/21 13:14:17;;;;;;;1.52;0.22;;;7.90;66.20;;;;;;4987607;28;20053;-74
2022/02/21 13:16:53;;;;;;;2.15;0.52;;;7.90;66.20;;;;;;4985789;28;20131;-74
2022/02/21 13:19:25;;;;;;;1.27;0.30;;;7.90;66.50;;;;;;4988742;28;20061;-71
2022/02/21 13:21:56;;;;;;;5.38;0.50;;;7.80;66.80;;;;;;4987072;28;20056;-72